Time;durP1;ratioP1;P1;durP2;ratioP2;P2;SDS_P1;SDS_P2;PMS_P1;PMS_P2;Temp;Humidity;BMP_temperature;BMP_pressure;BME280_temperature;BME280_humidity;BME280_pressure;Samples;Min_cycle;Max_cycle;Signal;HPM_P1;HPM_P2
2022/02/06 00:00:52;;;;;;;;;;;0.50;99.90;;;;;;5073945;28;19916;-72
2022/02/06 00:03:18;;;;;;;;;;;0.50;99.90;;;;;;5073436;28;19919;-72
2022/02/06 00:05:45;;;;;;;;;;;0.60;99.90;;;;;;5072340;28;20272;-72
2022/02/06 00:08:12;;;;;;;;;;;0.70;99.90;;;;;;5073664;28;19912;-72
2022/02/06 00:10:38;;;;;;;;;;;0.70;99.90;;;;;;5073860;28;19909;-72
2022/02/06 00:13:03;;;;;;;;;;;0.60;99.90;;;;;;5073416;28;19920;-72
2022/02/06 00:15:29;;;;;;;;;;;0.60;99.90;;;;;;5073174;28;19916;-73
2022/02/06 00:17:55;;;;;;;;;;;0.90;99.90;;;;;;5073336;28;19913;-72
2022/02/06 00:20:21;;;;;;;;;;;0.90;99.90;;;;;;5073470;28;19909;-71
2022/02/06 00:22:54;;;;;;;;;;;1.00;99.90;;;;;;5069825;28;19909;-72
2022/02/06 00:25:31;;;;;;;;;;;1.10;99.90;;;;;;5074951;28;20379;-72
2022/02/06 00:28:12;;;;;;;;;;;1.10;99.90;;;;;;5073241;28;19908;-72
2022/02/06 00:30:48;;;;;;;;;;;1.20;99.90;;;;;;5067519;28;19908;-73
2022/02/06 00:41:29;;;;;;;;;;;1.10;99.90;;;;;;5068792;28;19915;-73
2022/02/06 00:43:55;;;;;;;;;;;1.20;99.90;;;;;;5072887;28;19908;-73
2022/02/06 00:46:22;;;;;;;;;;;1.20;99.90;;;;;;5072879;28;20312;-72
2022/02/06 00:48:53;;;;;;;;;;;1.40;99.90;;;;;;5072611;28;19908;-73
2022/02/06 00:53:47;;;;;;;;;;;1.30;99.90;;;;;;5068448;28;19909;-73
2022/02/06 00:56:13;;;;;;;;;;;1.30;99.90;;;;;;5071376;28;19909;-73
2022/02/06 00:58:38;;;;;;;;;;;1.30;99.90;;;;;;5071379;28;20357;-73
2022/02/06 01:01:04;;;;;;;;;;;1.20;99.90;;;;;;5071373;28;19909;-71
2022/02/06 01:03:29;;;;;;;;;;;1.20;99.90;;;;;;5072298;28;19963;-72
2022/02/06 01:05:55;;;;;;;;;;;1.20;99.90;;;;;;5072549;28;19999;-73
2022/02/06 01:08:21;;;;;;;;;;;1.20;99.90;;;;;;5072101;28;19954;-73
2022/02/06 01:10:46;;;;;;;;;;;1.40;99.90;;;;;;5072529;28;20311;-74
2022/02/06 01:13:21;;;;;;;;;;;1.30;99.90;;;;;;5071989;28;19915;-72
2022/02/06 01:16:01;;;;;;;;;;;1.30;99.90;;;;;;5072329;28;19916;-73
2022/02/06 01:18:36;;;;;;;;;;;1.30;99.90;;;;;;5072123;28;19964;-73
2022/02/06 01:21:48;;;;;;;;;;;1.20;99.90;;;;;;5072199;28;19914;-72
2022/02/06 01:26:31;;;;;;;;;;;1.30;99.90;;;;;;5077362;28;20365;-73
2022/02/06 01:29:09;;;;;;;;;;;1.40;99.90;;;;;;5072657;28;19934;-73
2022/02/06 01:34:02;;;;;;;;;;;1.20;99.90;;;;;;5071834;28;19944;-72
2022/02/06 01:39:08;;;;;;;;;;;1.10;99.90;;;;;;5065654;28;20383;-72
2022/02/06 01:41:40;;;;;;;;;;;1.10;99.90;;;;;;5071666;28;19924;-72
2022/02/06 01:44:11;;;;;;;;;;;1.10;99.90;;;;;;5071682;28;20376;-72
2022/02/06 01:46:54;;;;;;;;;;;1.10;99.90;;;;;;5071803;28;20270;-72
2022/02/06 02:13:27;;;;;;;;;;;0.90;99.90;;;;;;5071071;28;19920;-72
2022/02/06 02:47:34;;;;;;;;;;;1.40;99.90;;;;;;5071037;28;20388;-72
2022/02/06 02:50:06;;;;;;;;;;;1.40;99.90;;;;;;5071186;28;19916;-72
2022/02/06 03:05:37;;;;;;;;;;;1.40;99.90;;;;;;5071200;28;19919;-72
2022/02/06 03:08:05;;;;;;;;;;;1.40;99.90;;;;;;5070994;28;19909;-72
2022/02/06 03:10:31;;;;;;;;;;;1.40;99.90;;;;;;5070896;28;19912;-71
2022/02/06 03:12:57;;;;;;;;;;;1.60;99.90;;;;;;5070771;28;19915;-72
2022/02/06 03:15:47;;;;;;;;;;;1.70;99.90;;;;;;5070326;28;19921;-72
2022/02/06 03:18:17;;;;;;;;;;;1.70;99.90;;;;;;5070273;28;19958;-72
2022/02/06 03:20:42;;;;;;;;;;;1.70;99.90;;;;;;5071019;28;19917;-71
2022/02/06 03:23:10;;;;;;;;;;;1.60;99.90;;;;;;5070107;28;19913;-72
2022/02/06 03:25:37;;;;;;;;;;;1.70;99.90;;;;;;5070687;28;19912;-72
2022/02/06 03:28:02;;;;;;;;;;;1.70;99.90;;;;;;5070778;28;19919;-72
2022/02/06 03:30:30;;;;;;;;;;;1.70;99.90;;;;;;5070822;28;19944;-72
2022/02/06 03:32:56;;;;;;;;;;;1.80;99.90;;;;;;5073667;28;19908;-72
2022/02/06 03:35:22;;;;;;;;;;;1.70;99.90;;;;;;5074457;28;20327;-72
2022/02/06 03:37:47;;;;;;;;;;;1.80;99.90;;;;;;5074455;28;20349;-72
2022/02/06 03:40:21;;;;;;;;;;;1.80;99.90;;;;;;5074631;28;19912;-72
2022/02/06 03:45:39;;;;;;;;;;;1.80;99.90;;;;;;5069416;28;20296;-74
2022/02/06 03:48:19;;;;;;;;;;;1.90;99.90;;;;;;5073111;28;20406;-72
2022/02/06 03:50:49;;;;;;;;;;;1.80;99.90;;;;;;5074925;28;19944;-72
2022/02/06 03:53:18;;;;;;;;;;;1.90;99.90;;;;;;5080576;28;19908;-72
2022/02/06 03:55:44;;;;;;;;;;;1.90;99.90;;;;;;5073842;28;19913;-71
2022/02/06 03:58:09;;;;;;;;;;;1.90;99.90;;;;;;5074075;28;19982;-72
2022/02/06 04:00:36;;;;;;;;;;;1.80;99.90;;;;;;5074144;28;19991;-72
2022/02/06 04:03:02;;;;;;;;;;;1.80;99.90;;;;;;5074054;28;19963;-72
2022/02/06 04:05:28;;;;;;;;;;;1.80;99.90;;;;;;5073731;28;19962;-72
2022/02/06 04:07:53;;;;;;;;;;;1.80;99.90;;;;;;5072482;28;19912;-72
2022/02/06 04:10:19;;;;;;;;;;;1.80;99.90;;;;;;5073701;28;19920;-72
2022/02/06 04:12:47;;;;;;;;;;;1.80;99.90;;;;;;5073426;28;20381;-72
2022/02/06 04:15:23;;;;;;;;;;;1.90;99.90;;;;;;5073069;28;19909;-72
2022/02/06 04:17:56;;;;;;;;;;;1.90;99.90;;;;;;5073217;28;19964;-73
2022/02/06 04:20:22;;;;;;;;;;;1.90;99.90;;;;;;5073468;28;19908;-72
2022/02/06 04:22:47;;;;;;;;;;;1.90;99.90;;;;;;5071140;28;20384;-72
2022/02/06 04:25:13;;;;;;;;;;;1.90;99.90;;;;;;5078982;28;19912;-73
2022/02/06 04:27:38;;;;;;;;;;;2.10;99.90;;;;;;5073237;28;19908;-72
2022/02/06 04:30:04;;;;;;;;;;;2.10;99.90;;;;;;5073285;28;20357;-72
2022/02/06 04:32:30;;;;;;;;;;;2.10;99.90;;;;;;5072948;28;19909;-72
2022/02/06 04:34:57;;;;;;;;;;;2.20;99.90;;;;;;5072927;28;19908;-72
2022/02/06 05:11:21;;;;;;;;;;;2.30;99.90;;;;;;5067382;28;19919;-72
2022/02/06 05:15:22;;;;;;;;;;;2.40;99.90;;;;;;5072367;28;19912;-72
2022/02/06 05:27:52;;;;;;;;;;;2.30;99.90;;;;;;5072068;28;19913;-72
2022/02/06 05:30:21;;;;;;;;;;;2.30;99.90;;;;;;5066563;28;19908;-74
2022/02/06 05:32:58;;;;;;;;;;;2.40;99.90;;;;;;5071728;28;20428;-72
2022/02/06 05:35:24;;;;;;;;;;;2.40;99.90;;;;;;5071835;28;20054;-72
2022/02/06 05:37:50;;;;;;;;;;;2.30;99.90;;;;;;5071818;28;20412;-72
2022/02/06 05:40:15;;;;;;;;;;;2.40;99.90;;;;;;5071903;28;19908;-72
2022/02/06 05:42:42;;;;;;;;;;;2.30;99.90;;;;;;5070405;28;19915;-73
2022/02/06 05:45:08;;;;;;;;;;;2.40;99.90;;;;;;5071492;28;20399;-72
2022/02/06 05:47:34;;;;;;;;;;;2.50;99.90;;;;;;5071561;28;19909;-72
2022/02/06 05:49:59;;;;;;;;;;;2.50;99.90;;;;;;5070329;28;19962;-72
2022/02/06 05:52:25;;;;;;;;;;;2.50;99.90;;;;;;5063693;28;19967;-73
2022/02/06 05:54:51;;;;;;;;;;;2.50;99.90;;;;;;5070403;28;19908;-72
2022/02/06 05:57:16;;;;;;;;;;;2.40;99.90;;;;;;5071451;28;19908;-72
2022/02/06 05:59:42;;;;;;;;;;;2.50;99.90;;;;;;5071257;28;19912;-72
2022/02/06 06:02:07;;;;;;;;;;;2.60;99.90;;;;;;5070563;28;19908;-73
2022/02/06 06:04:33;;;;;;;;;;;2.50;99.90;;;;;;5071270;28;19955;-72
2022/02/06 06:06:58;;;;;;;;;;;2.50;99.90;;;;;;5071437;28;20322;-72
2022/02/06 06:09:24;;;;;;;;;;;2.60;99.90;;;;;;5071492;28;19909;-72
2022/02/06 06:11:49;;;;;;;;;;;2.50;99.90;;;;;;5071498;28;19909;-72
2022/02/06 06:14:15;;;;;;;;;;;2.40;99.90;;;;;;5071062;28;19953;-72
2022/02/06 06:16:41;;;;;;;;;;;2.60;99.90;;;;;;5071117;28;20019;-72
2022/02/06 06:19:06;;;;;;;;;;;2.60;99.90;;;;;;5069878;28;19919;-72
2022/02/06 06:21:39;;;;;;;;;;;2.60;99.90;;;;;;5071049;28;19918;-74
2022/02/06 06:24:05;;;;;;;;;;;2.60;99.90;;;;;;5075574;28;20380;-72
2022/02/06 06:26:36;;;;;;;;;;;2.60;99.90;;;;;;5071231;28;19908;-72
2022/02/06 06:29:01;;;;;;;;;;;2.70;99.90;;;;;;5071083;28;19912;-72
2022/02/06 06:31:27;;;;;;;;;;;2.60;99.90;;;;;;5070970;28;19908;-72
2022/02/06 06:33:53;;;;;;;;;;;2.70;99.90;;;;;;5070923;28;19913;-72
2022/02/06 06:36:21;;;;;;;;;;;2.80;99.90;;;;;;5065347;28;20332;-72
2022/02/06 06:38:51;;;;;;;;;;;2.80;99.90;;;;;;5070338;28;19912;-72
2022/02/06 06:41:16;;;;;;;;;;;2.70;99.90;;;;;;5069695;28;19915;-72
2022/02/06 06:43:42;;;;;;;;;;;2.80;99.90;;;;;;5070522;28;19909;-73
2022/02/06 06:46:08;;;;;;;;;;;2.80;99.90;;;;;;5070970;28;19908;-72
2022/02/06 06:48:33;;;;;;;;;;;2.80;99.90;;;;;;5071040;28;19912;-72
2022/02/06 06:50:59;;;;;;;;;;;2.80;99.90;;;;;;5070950;28;19954;-72
2022/02/06 06:53:24;;;;;;;;;;;2.80;99.90;;;;;;5076618;28;19995;-73
2022/02/06 06:55:57;;;;;;;;;;;2.80;99.90;;;;;;5077018;28;19916;-72
2022/02/06 06:58:29;;;;;;;;;;;2.90;99.90;;;;;;5070685;28;20054;-72
2022/02/06 07:03:31;;;;;;;;;;;2.90;99.90;;;;;;5064449;28;20350;-72
2022/02/06 07:05:56;;;;;;;;;;;2.90;99.90;;;;;;5070858;28;20041;-72
2022/02/06 07:08:22;;;;;;;;;;;3.00;99.90;;;;;;5074936;28;19952;-72
2022/02/06 07:10:48;;;;;;;;;;;3.00;99.90;;;;;;5074551;28;19909;-72
2022/02/06 07:13:13;;;;;;;;;;;3.00;99.90;;;;;;5074367;28;19915;-72
2022/02/06 07:15:39;;;;;;;;;;;3.00;99.90;;;;;;5076818;28;19916;-74
2022/02/06 07:18:05;;;;;;;;;;;3.10;99.90;;;;;;5075442;28;19970;-73
2022/02/06 07:20:32;;;;;;;;;;;3.20;99.90;;;;;;5075266;28;19908;-73
2022/02/06 07:22:58;;;;;;;;;;;3.30;99.90;;;;;;5071995;28;19909;-73
2022/02/06 07:25:25;;;;;;;;;;;3.30;99.90;;;;;;5074428;28;19912;-73
2022/02/06 07:27:51;;;;;;;;;;;3.20;99.90;;;;;;5074652;28;19922;-75
2022/02/06 07:30:18;;;;;;;;;;;3.20;99.90;;;;;;5075204;28;20010;-73
2022/02/06 07:32:44;;;;;;;;;;;3.20;99.90;;;;;;5074695;28;19916;-73
2022/02/06 07:35:10;;;;;;;;;;;3.30;99.90;;;;;;5075046;28;19909;-74
2022/02/06 07:37:36;;;;;;;;;;;3.30;99.90;;;;;;5074300;28;19948;-73
2022/02/06 07:40:02;;;;;;;;;;;3.20;99.90;;;;;;5074561;28;20451;-73
2022/02/06 07:42:28;;;;;;;;;;;3.40;99.90;;;;;;5072952;28;19923;-73
2022/02/06 07:44:54;;;;;;;;;;;3.40;99.90;;;;;;5073010;28;19916;-76
2022/02/06 07:47:21;;;;;;;;;;;3.40;99.90;;;;;;5074473;28;19955;-73
2022/02/06 07:49:49;;;;;;;;;;;3.60;99.90;;;;;;5074430;28;20003;-73
2022/02/06 07:52:16;;;;;;;;;;;3.50;99.90;;;;;;5074115;28;19908;-73
2022/02/06 07:54:41;;;;;;;;;;;3.60;99.90;;;;;;5072595;28;20373;-73
2022/02/06 07:57:07;;;;;;;;;;;3.50;99.90;;;;;;5074350;28;19908;-73
2022/02/06 07:59:33;;;;;;;;;;;3.70;99.90;;;;;;5073972;28;19912;-74
2022/02/06 08:01:58;;;;;;;;;;;3.70;99.90;;;;;;5073908;28;19915;-73
2022/02/06 08:04:24;;;;;;;;;;;3.80;99.90;;;;;;5074148;28;19958;-73
2022/02/06 08:06:49;;;;;;;;;;;3.90;99.90;;;;;;5073935;28;20040;-73
2022/02/06 08:09:18;;;;;;;;;;;3.90;99.90;;;;;;5073658;28;20361;-73
2022/02/06 08:11:47;;;;;;;;;;;4.00;99.90;;;;;;5073567;28;19955;-72
2022/02/06 08:14:48;;;;;;;;;;;4.10;99.90;;;;;;5073517;28;20019;-75
2022/02/06 08:16:58;;;;;;;;;;;4.20;99.90;;;;;;5073396;28;20396;-73
2022/02/06 08:19:23;;;;;;;;;;;4.40;99.90;;;;;;5073351;28;19942;-74
2022/02/06 08:21:49;;;;;;;;;;;4.40;99.90;;;;;;5074384;28;20333;-73
2022/02/06 08:24:14;;;;;;;;;;;4.40;99.90;;;;;;5073791;28;19934;-73
2022/02/06 08:26:40;;;;;;;;;;;4.50;99.90;;;;;;5073484;28;19909;-73
2022/02/06 08:29:05;;;;;;;;;;;4.70;99.90;;;;;;5073589;28;20000;-74
2022/02/06 08:31:31;;;;;;;;;;;4.70;99.90;;;;;;5073421;28;20331;-75
2022/02/06 08:33:56;;;;;;;;;;;4.70;99.90;;;;;;5073114;28;19909;-73
2022/02/06 08:36:22;;;;;;;;;;;4.70;99.90;;;;;;5073226;28;20026;-73
2022/02/06 08:38:47;;;;;;;;;;;4.50;99.90;;;;;;5073297;28;19958;-74
2022/02/06 08:41:13;;;;;;;;;;;4.40;99.90;;;;;;5073156;28;19917;-73
2022/02/06 08:43:38;;;;;;;;;;;4.50;99.90;;;;;;5073045;28;19908;-73
2022/02/06 08:46:04;;;;;;;;;;;4.70;99.90;;;;;;5071853;28;20353;-73
2022/02/06 08:48:29;;;;;;;;;;;4.90;99.90;;;;;;5071878;28;19994;-74
2022/02/06 08:50:55;;;;;;;;;;;5.10;99.90;;;;;;5073027;28;20333;-73
2022/02/06 08:53:20;;;;;;;;;;;5.10;99.90;;;;;;5069225;28;19909;-73
2022/02/06 08:55:48;;;;;;;;;;;5.10;99.90;;;;;;5071386;28;19948;-74
2022/02/06 08:58:15;;;;;;;;;;;5.10;99.90;;;;;;5072887;28;19924;-74
2022/02/06 09:00:40;;;;;;;;;;;5.10;99.90;;;;;;5072997;28;19915;-73
2022/02/06 09:03:06;;;;;;;;;;;5.10;99.90;;;;;;5072497;28;19912;-73
2022/02/06 09:05:33;;;;;;;;;;;5.30;99.90;;;;;;5072364;28;19954;-73
2022/02/06 09:07:59;;;;;;;;;;;5.40;99.90;;;;;;5072682;28;19915;-73
2022/02/06 09:10:24;;;;;;;;;;;5.50;99.90;;;;;;5072627;28;19991;-73
2022/02/06 09:12:53;;;;;;;;;;;5.50;99.90;;;;;;5069358;28;19954;-74
2022/02/06 09:15:19;;;;;;;;;;;5.50;99.90;;;;;;5072119;28;19926;-74
2022/02/06 09:17:45;;;;;;;;;;;5.40;99.90;;;;;;5072394;28;20003;-73
2022/02/06 09:20:11;;;;;;;;;;;5.30;99.90;;;;;;5072404;28;19909;-74
2022/02/06 09:22:37;;;;;;;;;;;5.10;99.90;;;;;;5060222;28;19908;-73
2022/02/06 09:25:02;;;;;;;;;;;5.00;99.90;;;;;;5071659;28;20285;-74
2022/02/06 09:27:28;;;;;;;;;;;5.10;99.90;;;;;;5072298;28;19908;-73
2022/02/06 09:29:53;;;;;;;;;;;5.20;99.90;;;;;;5072879;28;20337;-73
2022/02/06 09:37:11;;;;;;;;;;;5.20;99.90;;;;;;5072699;28;20415;-73
2022/02/06 09:39:42;;;;;;;;;;;5.20;99.90;;;;;;5072546;28;19912;-74
2022/02/06 09:42:08;;;;;;;;;;;5.20;99.90;;;;;;5072608;28;19908;-74
2022/02/06 09:44:34;;;;;;;;;;;5.40;99.90;;;;;;5072092;28;19919;-74
2022/02/06 09:47:00;;;;;;;;;;;5.50;99.90;;;;;;5071160;28;19991;-73
2022/02/06 09:49:29;;;;;;;;;;;5.60;99.90;;;;;;5072596;28;19923;-73
2022/02/06 09:51:55;;;;;;;;;;;5.60;99.90;;;;;;5071062;28;19915;-75
2022/02/06 09:54:23;;;;;;;;;;;6.00;99.90;;;;;;5073967;28;19908;-77
2022/02/06 09:56:51;;;;;;;;;;;6.40;99.90;;;;;;5073307;28;19916;-73
2022/02/06 09:59:20;;;;;;;;;;;7.40;99.90;;;;;;5071849;28;19938;-73
2022/02/06 10:01:47;;;;;;;;;;;6.70;99.90;;;;;;5071849;28;19909;-74
2022/02/06 10:04:16;;;;;;;;;;;6.50;99.90;;;;;;5071885;28;20369;-74
2022/02/06 10:06:44;;;;;;;;;;;6.30;99.90;;;;;;5072149;28;20019;-75
2022/02/06 10:09:14;;;;;;;;;;;6.70;99.90;;;;;;5071907;28;19909;-74
2022/02/06 10:11:44;;;;;;;;;;;6.50;99.90;;;;;;5071676;28;20262;-74
2022/02/06 10:14:10;;;;;;;;;;;6.90;99.90;;;;;;5071302;28;19908;-74
2022/02/06 10:16:35;;;;;;;;;;;6.70;99.90;;;;;;5071811;28;20448;-75
2022/02/06 10:19:01;;;;;;;;;;;6.70;99.90;;;;;;5071332;28;19912;-73
2022/02/06 10:21:30;;;;;;;;;;;7.10;99.90;;;;;;5071079;28;20360;-73
2022/02/06 10:24:05;;;;;;;;;;;7.40;99.90;;;;;;5070735;28;20296;-75
2022/02/06 10:27:19;;;;;;;;;;;6.90;99.90;;;;;;5064220;28;20284;-74
2022/02/06 10:31:59;;;;;;;;;;;6.10;99.90;;;;;;5071347;28;19908;-74
2022/02/06 10:34:26;;;;;;;;;;;6.10;99.90;;;;;;5071153;28;19909;-74
2022/02/06 10:37:08;;;;;;;;;;;6.10;99.90;;;;;;5071314;28;19908;-73
2022/02/06 10:39:33;;;;;;;;;;;6.30;99.90;;;;;;5063143;28;19916;-73
2022/02/06 10:41:59;;;;;;;;;;;6.80;99.90;;;;;;5070734;28;20376;-74
2022/02/06 10:44:30;;;;;;;;;;;6.60;99.90;;;;;;5070944;28;19909;-74
2022/02/06 10:46:58;;;;;;;;;;;6.10;99.90;;;;;;5064625;28;19908;-77
2022/02/06 10:49:24;;;;;;;;;;;6.00;99.90;;;;;;5071138;28;20127;-74
2022/02/06 10:51:59;;;;;;;;;;;6.40;99.90;;;;;;5058575;28;19913;-76
2022/02/06 10:54:24;;;;;;;;;;;6.60;99.90;;;;;;5067833;28;20003;-72
2022/02/06 10:57:00;;;;;;;;;;;7.10;99.90;;;;;;5071225;28;20011;-72
2022/02/06 10:59:27;;;;;;;;;;;7.50;99.90;;;;;;5071251;28;19917;-72
2022/02/06 11:01:54;;;;;;;;;;;8.20;99.90;;;;;;5071106;28;19999;-75
2022/02/06 11:04:31;;;;;;;;;;;7.60;99.80;;;;;;5070760;28;20275;-73
2022/02/06 11:07:16;;;;;;;;;;;6.90;99.90;;;;;;5070908;28;19909;-72
2022/02/06 11:09:41;;;;;;;;;;;6.90;99.90;;;;;;5069207;28;19909;-72
2022/02/06 11:12:15;;;;;;;;;;;7.20;99.90;;;;;;5070397;28;20426;-73
2022/02/06 11:14:48;;;;;;;;;;;7.40;99.90;;;;;;5071003;28;19909;-72
2022/02/06 11:17:23;;;;;;;;;;;7.70;99.60;;;;;;5071005;28;19931;-72
2022/02/06 11:20:09;;;;;;;;;;;7.70;99.90;;;;;;5050702;28;19959;-73
2022/02/06 11:22:50;;;;;;;;;;;7.10;99.90;;;;;;5068154;28;20389;-73
2022/02/06 11:25:16;;;;;;;;;;;6.90;99.90;;;;;;5076335;28;19908;-72
2022/02/06 11:27:41;;;;;;;;;;;6.80;99.90;;;;;;5070910;28;19954;-73
2022/02/06 11:30:07;;;;;;;;;;;6.70;99.90;;;;;;5070955;28;20346;-73
2022/02/06 11:32:33;;;;;;;;;;;6.80;99.90;;;;;;5070742;28;19913;-72
2022/02/06 11:35:03;;;;;;;;;;;6.70;99.90;;;;;;5070627;28;19909;-72
2022/02/06 11:46:22;;;;;;;;;;;6.50;99.90;;;;;;5070572;28;20070;-73
2022/02/06 11:48:49;;;;;;;;;;;6.40;99.90;;;;;;5070742;28;19916;-73
2022/02/06 11:51:16;;;;;;;;;;;6.50;99.90;;;;;;5070058;28;19966;-73
2022/02/06 11:53:42;;;;;;;;;;;6.50;99.90;;;;;;5068709;28;19923;-73
2022/02/06 11:56:26;;;;;;;;;;;6.70;99.90;;;;;;5075026;28;19908;-74
2022/02/06 11:58:52;;;;;;;;;;;6.60;99.90;;;;;;5074435;28;19919;-75
2022/02/06 12:01:18;;;;;;;;;;;6.70;99.90;;;;;;5074023;28;19919;-75
2022/02/06 12:03:57;;;;;;;;;;;6.60;99.90;;;;;;5073884;28;19912;-73
2022/02/06 12:06:24;;;;;;;;;;;6.50;99.90;;;;;;5068088;28;19915;-74
2022/02/06 12:08:58;;;;;;;;;;;6.60;99.90;;;;;;5073974;28;20312;-74
2022/02/06 12:11:25;;;;;;;;;;;6.50;99.90;;;;;;5073870;28;19916;-74
2022/02/06 12:14:10;;;;;;;;;;;6.30;99.90;;;;;;5073827;28;19908;-74
2022/02/06 12:17:03;;;;;;;;;;;6.40;99.90;;;;;;5073805;28;19921;-73
2022/02/06 12:19:25;;;;;;;;;;;6.40;99.90;;;;;;5073347;28;20014;-73
2022/02/06 12:21:51;;;;;;;;;;;6.50;99.90;;;;;;5073570;28;19915;-74
2022/02/06 12:24:36;;;;;;;;;;;6.40;99.90;;;;;;5084554;28;19908;-75
2022/02/06 12:27:20;;;;;;;;;;;6.30;99.90;;;;;;5068992;28;19909;-73
2022/02/06 12:29:50;;;;;;;;;;;6.30;99.90;;;;;;5073612;28;19909;-73
2022/02/06 12:32:28;;;;;;;;;;;6.30;99.90;;;;;;5073575;28;19913;-73
2022/02/06 12:37:39;;;;;;;;;;;6.40;99.90;;;;;;5069512;28;19919;-74
2022/02/06 12:40:10;;;;;;;;;;;6.40;99.90;;;;;;5072097;28;19909;-73
2022/02/06 12:42:40;;;;;;;;;;;6.50;99.90;;;;;;5073844;28;19908;-73
2022/02/06 12:45:07;;;;;;;;;;;6.50;99.90;;;;;;5073448;28;19995;-73
2022/02/06 12:47:36;;;;;;;;;;;6.50;99.90;;;;;;5073082;28;20027;-75
2022/02/06 12:50:11;;;;;;;;;;;6.50;99.90;;;;;;5074876;28;19962;-74
2022/02/06 12:52:36;;;;;;;;;;;6.50;99.90;;;;;;5072534;28;19916;-73
2022/02/06 12:55:03;;;;;;;;;;;6.60;99.90;;;;;;5072858;28;20280;-73
2022/02/06 12:57:28;;;;;;;;;;;6.60;99.90;;;;;;5073061;28;19987;-73
2022/02/06 12:59:53;;;;;;;;;;;6.50;99.90;;;;;;5072943;28;20047;-73
2022/02/06 13:02:23;;;;;;;;;;;6.40;99.90;;;;;;5073249;28;19923;-73
2022/02/06 13:04:58;;;;;;;;;;;6.40;99.90;;;;;;5072232;28;20469;-74
2022/02/06 13:07:29;;;;;;;;;;;6.30;99.90;;;;;;5072955;28;19915;-75
2022/02/06 13:10:01;;;;;;;;;;;6.20;99.90;;;;;;5073172;28;19908;-73
2022/02/06 13:12:33;;;;;;;;;;;6.20;99.90;;;;;;5072676;28;19999;-73
2022/02/06 13:20:43;;;;;;;;;;;6.00;99.90;;;;;;5073134;28;19915;-73
2022/02/06 13:23:26;;;;;;;;;;;5.90;99.90;;;;;;5072467;28;20001;-73
2022/02/06 13:38:39;;;;;;;;;;;5.70;99.90;;;;;;5072645;28;19912;-73
2022/02/06 13:41:16;;;;;;;;;;;5.80;99.90;;;;;;5072442;28;19923;-73
2022/02/06 13:43:42;;;;;;;;;;;5.80;99.90;;;;;;5072102;28;20389;-74
2022/02/06 13:46:15;;;;;;;;;;;5.80;99.90;;;;;;5072052;28;20008;-73
2022/02/06 13:48:41;;;;;;;;;;;5.80;99.90;;;;;;5072023;28;19908;-76
2022/02/06 13:51:08;;;;;;;;;;;5.80;99.90;;;;;;5065558;28;19915;-73
2022/02/06 13:53:36;;;;;;;;;;;5.70;99.90;;;;;;5071433;28;19920;-73
2022/02/06 13:56:04;;;;;;;;;;;5.60;99.90;;;;;;5072867;28;20007;-74
2022/02/06 13:58:30;;;;;;;;;;;5.40;99.90;;;;;;5065734;28;19954;-73
2022/02/06 14:00:56;;;;;;;;;;;5.40;99.90;;;;;;5065527;28;19951;-73
2022/02/06 14:03:22;;;;;;;;;;;5.30;99.90;;;;;;5069724;28;19951;-73
2022/02/06 14:05:51;;;;;;;;;;;5.30;99.90;;;;;;5069723;28;19912;-73
2022/02/06 14:08:19;;;;;;;;;;;5.30;99.90;;;;;;5071596;28;19909;-74
2022/02/06 14:11:01;;;;;;;;;;;5.20;99.90;;;;;;5071725;28;19912;-73
2022/02/06 14:13:28;;;;;;;;;;;5.10;99.90;;;;;;5071352;28;19952;-74
2022/02/06 14:16:02;;;;;;;;;;;5.00;99.90;;;;;;5071093;28;19923;-74
2022/02/06 14:18:28;;;;;;;;;;;5.00;99.90;;;;;;5071702;28;19966;-73
2022/02/06 14:20:57;;;;;;;;;;;5.00;99.90;;;;;;5071681;28;19959;-73
2022/02/06 14:23:23;;;;;;;;;;;4.90;99.90;;;;;;5074669;28;19962;-73
2022/02/06 14:25:48;;;;;;;;;;;4.80;99.90;;;;;;5071610;28;19908;-74
2022/02/06 14:28:26;;;;;;;;;;;4.70;99.90;;;;;;5070343;28;19913;-74
2022/02/06 14:30:52;;;;;;;;;;;4.60;99.90;;;;;;5072358;28;20377;-74
2022/02/06 14:33:24;;;;;;;;;;;4.60;99.90;;;;;;5071256;28;19919;-75
2022/02/06 14:35:59;;;;;;;;;;;4.60;99.90;;;;;;5068480;28;19909;-74
2022/02/06 14:41:34;;;;;;;;;;;4.60;99.90;;;;;;5071393;28;19913;-73
2022/02/06 14:44:01;;;;;;;;;;;4.60;99.90;;;;;;5053395;28;20476;-73
2022/02/06 14:46:30;;;;;;;;;;;4.60;99.90;;;;;;5071760;28;20408;-73
2022/02/06 14:48:56;;;;;;;;;;;4.50;99.90;;;;;;5071428;28;19975;-74
2022/02/06 14:51:23;;;;;;;;;;;4.50;99.90;;;;;;5069033;28;19940;-74
2022/02/06 14:53:54;;;;;;;;;;;4.40;99.90;;;;;;5071572;28;19916;-73
2022/02/06 14:56:20;;;;;;;;;;;4.30;99.90;;;;;;5072702;28;19919;-75
2022/02/06 14:58:45;;;;;;;;;;;4.30;99.90;;;;;;5069888;28;20351;-73
2022/02/06 15:01:11;;;;;;;;;;;4.20;99.90;;;;;;5070900;28;19908;-74
2022/02/06 15:03:37;;;;;;;;;;;4.20;99.90;;;;;;5070525;28;19908;-74
2022/02/06 15:06:02;;;;;;;;;;;4.10;99.90;;;;;;5070746;28;19948;-74
2022/02/06 15:08:28;;;;;;;;;;;4.10;99.90;;;;;;5070942;28;19909;-73
2022/02/06 15:10:53;;;;;;;;;;;4.10;99.90;;;;;;5069607;28;19917;-73
2022/02/06 15:13:19;;;;;;;;;;;4.10;99.90;;;;;;5070526;28;19913;-74
2022/02/06 15:15:51;;;;;;;;;;;4.10;99.90;;;;;;5070577;28;20034;-74
2022/02/06 15:20:49;;;;;;;;;;;4.00;99.90;;;;;;5071134;28;19908;-73
2022/02/06 15:23:15;;;;;;;;;;;4.00;99.90;;;;;;5072792;28;19908;-74
2022/02/06 15:25:40;;;;;;;;;;;4.00;99.90;;;;;;5073639;28;19916;-74
2022/02/06 15:28:06;;;;;;;;;;;4.00;99.90;;;;;;5072653;28;19908;-73
2022/02/06 15:30:31;;;;;;;;;;;4.00;99.90;;;;;;5074539;28;19913;-73
2022/02/06 15:32:57;;;;;;;;;;;3.90;99.90;;;;;;5074208;28;20280;-75
2022/02/06 15:35:22;;;;;;;;;;;3.90;99.90;;;;;;5074322;28;19943;-73
2022/02/06 15:37:48;;;;;;;;;;;3.90;99.90;;;;;;5074181;28;20272;-72
2022/02/06 15:40:17;;;;;;;;;;;3.90;99.90;;;;;;5074627;28;19912;-73
2022/02/06 15:42:43;;;;;;;;;;;3.90;99.90;;;;;;5072980;28;20024;-73
2022/02/06 15:45:08;;;;;;;;;;;3.90;99.90;;;;;;5074549;28;20015;-73
2022/02/06 15:47:34;;;;;;;;;;;3.80;99.90;;;;;;5073862;28;19966;-73
2022/02/06 15:50:00;;;;;;;;;;;3.80;99.90;;;;;;5074189;28;19908;-73
2022/02/06 15:52:25;;;;;;;;;;;3.80;99.90;;;;;;5074222;28;19908;-74
2022/02/06 15:54:51;;;;;;;;;;;3.80;99.90;;;;;;5074984;28;19999;-73
2022/02/06 15:57:16;;;;;;;;;;;3.80;99.90;;;;;;5074244;28;19913;-73
2022/02/06 15:59:42;;;;;;;;;;;3.70;99.90;;;;;;5073857;28;19913;-73
2022/02/06 16:02:07;;;;;;;;;;;3.70;99.90;;;;;;5073809;28;19931;-75
2022/02/06 16:04:33;;;;;;;;;;;3.70;99.90;;;;;;5073787;28;19932;-73
2022/02/06 16:06:58;;;;;;;;;;;3.80;99.90;;;;;;5073880;28;19919;-73
2022/02/06 16:09:28;;;;;;;;;;;3.80;99.90;;;;;;5072671;28;19912;-74
2022/02/06 16:11:54;;;;;;;;;;;3.80;99.90;;;;;;5067328;28;20361;-73
2022/02/06 16:14:20;;;;;;;;;;;3.70;99.90;;;;;;5073531;28;20011;-76
2022/02/06 16:16:45;;;;;;;;;;;3.70;99.90;;;;;;5073857;28;19923;-72
2022/02/06 16:19:11;;;;;;;;;;;3.70;99.90;;;;;;5073663;28;19952;-73
2022/02/06 16:21:36;;;;;;;;;;;3.70;99.90;;;;;;5073568;28;19909;-73
2022/02/06 16:24:02;;;;;;;;;;;3.70;99.90;;;;;;5073919;28;19962;-75
2022/02/06 16:26:28;;;;;;;;;;;3.70;99.90;;;;;;5074806;28;19908;-73
2022/02/06 16:28:55;;;;;;;;;;;3.70;99.90;;;;;;5072060;28;19920;-73
2022/02/06 16:31:21;;;;;;;;;;;3.70;99.90;;;;;;5073290;28;20250;-74
2022/02/06 16:33:47;;;;;;;;;;;3.80;99.90;;;;;;5073015;28;19944;-74
2022/02/06 16:36:13;;;;;;;;;;;3.80;99.90;;;;;;5073389;28;19919;-73
2022/02/06 16:38:39;;;;;;;;;;;3.80;99.90;;;;;;5072614;28;19912;-74
2022/02/06 16:41:06;;;;;;;;;;;3.80;99.90;;;;;;5070976;28;20392;-74
2022/02/06 16:43:31;;;;;;;;;;;3.80;99.90;;;;;;5068576;28;19975;-73
2022/02/06 16:45:57;;;;;;;;;;;3.80;99.90;;;;;;5070287;28;20284;-73
2022/02/06 16:48:23;;;;;;;;;;;3.80;99.90;;;;;;5072976;28;19915;-75
2022/02/06 16:50:49;;;;;;;;;;;3.80;99.90;;;;;;5072896;28;19963;-74
2022/02/06 16:53:14;;;;;;;;;;;3.80;99.90;;;;;;5075117;28;19948;-73
2022/02/06 16:55:40;;;;;;;;;;;3.80;99.90;;;;;;5076160;28;19951;-73
2022/02/06 16:58:05;;;;;;;;;;;3.80;99.90;;;;;;5072678;28;20388;-73
2022/02/06 17:00:31;;;;;;;;;;;3.80;99.90;;;;;;5070987;28;19909;-74
2022/02/06 17:02:57;;;;;;;;;;;3.80;99.90;;;;;;5068688;28;19916;-74
2022/02/06 17:05:22;;;;;;;;;;;3.90;99.90;;;;;;5069989;28;19909;-73
2022/02/06 17:07:49;;;;;;;;;;;3.90;99.90;;;;;;5064639;28;19913;-73
2022/02/06 17:10:15;;;;;;;;;;;3.90;99.90;;;;;;5060369;28;19915;-73
2022/02/06 17:12:40;;;;;;;;;;;3.90;99.90;;;;;;5064911;28;20007;-73
2022/02/06 17:15:06;;;;;;;;;;;4.00;99.90;;;;;;5061109;28;19912;-73
2022/02/06 17:17:31;;;;;;;;;;;3.90;99.90;;;;;;5060920;28;21103;-75
2022/02/06 17:19:57;;;;;;;;;;;3.90;99.90;;;;;;5061165;28;19927;-73
2022/02/06 17:22:22;;;;;;;;;;;4.00;99.90;;;;;;5056634;28;19908;-73
2022/02/06 17:24:48;;;;;;;;;;;4.00;99.90;;;;;;5062798;28;20357;-74
2022/02/06 17:27:16;;;;;;;;;;;4.00;99.90;;;;;;5071779;28;19912;-73
2022/02/06 17:29:43;;;;;;;;;;;4.00;99.90;;;;;;5062331;28;19913;-75
2022/02/06 17:32:09;;;;;;;;;;;4.10;99.90;;;;;;5064870;28;19909;-73
2022/02/06 17:34:34;;;;;;;;;;;4.10;99.90;;;;;;5071606;28;19912;-74
2022/02/06 17:37:00;;;;;;;;;;;4.00;99.90;;;;;;5071140;28;20331;-74